createdAt,value
2017-12-02T13:52:16.293Z,83.15
2017-12-02T13:53:19.107Z,83.06
2017-12-02T13:55:12.522Z,83.34
2017-12-02T13:56:12.688Z,83.15
2017-12-02T13:58:05.394Z,82.50
2017-12-02T13:59:03.599Z,82.97
2017-12-02T14:00:58.966Z,83.15
2017-12-02T14:01:59.853Z,83.06
2017-12-02T14:03:53.391Z,82.78
2017-12-02T14:04:52.784Z,82.68
2017-12-02T14:06:46.120Z,82.78
2017-12-02T14:07:46.912Z,82.97
2017-12-02T14:09:40.449Z,82.87
2017-12-02T14:10:40.441Z,82.97
2017-12-02T14:12:33.156Z,82.87
2017-12-02T14:13:34.028Z,83.25
2017-12-02T14:15:27.499Z,82.87
2017-12-02T14:16:27.610Z,82.68
2017-12-02T14:18:20.285Z,82.50
2017-12-02T14:19:20.380Z,82.97
2017-12-02T14:21:13.711Z,82.68
2017-12-02T14:22:14.709Z,83.15
2017-12-02T14:24:08.170Z,82.97
2017-12-02T14:25:08.260Z,82.78
2017-12-02T14:27:00.884Z,82.68
2017-12-02T14:28:01.897Z,83.44
2017-12-02T14:29:54.602Z,83.06
2017-12-02T14:30:55.426Z,82.87
2017-12-02T14:32:47.873Z,83.53
2017-12-02T14:33:48.915Z,82.78
2017-12-02T14:35:41.799Z,82.97
2017-12-02T14:36:42.629Z,82.59
2017-12-02T14:38:36.111Z,82.97
2017-12-02T14:39:38.941Z,82.68
2017-12-02T14:41:27.232Z,82.97
2017-12-02T14:42:27.810Z,82.68
2017-12-02T14:44:21.549Z,82.59
2017-12-02T14:45:23.017Z,82.87
2017-12-02T14:47:16.097Z,82.87
2017-12-02T14:48:16.759Z,82.78
2017-12-02T14:50:10.239Z,82.59
2017-12-02T14:51:10.281Z,82.68
2017-12-02T14:53:02.670Z,83.06
2017-12-02T14:54:03.822Z,83.34
2017-12-02T14:55:57.384Z,82.97
2017-12-02T14:56:57.562Z,82.87
2017-12-02T14:58:51.059Z,83.06
2017-12-02T14:59:50.963Z,83.06
2017-12-02T15:01:44.567Z,82.97
2017-12-02T15:02:44.461Z,83.44
2017-12-02T15:04:37.250Z,83.06
2017-12-02T15:05:38.237Z,82.78
2017-12-02T15:07:32.342Z,83.15
2017-12-02T15:08:31.631Z,82.97
2017-12-02T15:10:25.143Z,82.97
2017-12-02T15:11:22.431Z,82.73
2017-12-02T15:13:17.757Z,83.44
2017-12-02T15:14:18.703Z,83.63
2017-12-02T15:16:12.225Z,83.34
2017-12-02T15:17:12.534Z,83.63
2017-12-02T15:19:04.804Z,83.15
2017-12-02T15:20:05.815Z,83.06
2017-12-02T15:21:58.599Z,83.30
2017-12-02T15:24:13.646Z,83.34
2017-12-02T15:25:13.079Z,83.15
2017-12-02T15:27:06.359Z,83.34
2017-12-02T15:28:06.292Z,83.34
2017-12-02T15:29:58.965Z,83.34
2017-12-02T15:30:59.843Z,83.63
2017-12-02T15:32:53.440Z,82.92
2017-12-02T15:33:51.810Z,83.06
2017-12-02T15:35:46.012Z,83.34
2017-12-02T15:38:00.406Z,83.06
2017-12-02T15:39:00.364Z,83.44
2017-12-02T15:40:53.048Z,83.82
2017-12-02T15:41:53.960Z,83.30
2017-12-02T15:43:44.603Z,83.44
2017-12-02T15:44:47.545Z,83.34
2017-12-02T15:46:38.685Z,83.44
2017-12-02T15:47:40.916Z,83.30
2017-12-02T15:49:34.806Z,83.44
2017-12-02T15:50:34.866Z,83.34
2017-12-02T15:52:27.053Z,83.25
2017-12-02T15:53:28.176Z,83.02
2017-12-02T15:55:21.627Z,83.02
2017-12-02T15:56:20.017Z,83.21
2017-12-02T15:58:15.824Z,83.02
2017-12-02T15:59:15.288Z,83.40
2017-12-02T16:01:08.798Z,83.34
2017-12-02T16:02:06.254Z,83.25
2017-12-02T16:04:01.476Z,83.25
2017-12-02T16:05:02.358Z,83.63
2017-12-02T16:06:55.035Z,83.21
2017-12-02T16:07:55.919Z,83.44
2017-12-02T16:09:50.212Z,83.25
2017-12-02T16:10:49.736Z,83.63
2017-12-02T16:12:43.418Z,83.25
2017-12-02T16:13:41.225Z,83.44
2017-12-02T16:15:35.694Z,83.59
2017-12-02T16:16:36.061Z,83.30
2017-12-02T16:18:30.738Z,83.21
2017-12-02T16:19:30.197Z,83.44
2017-12-02T16:21:23.297Z,83.34
2017-12-02T16:22:24.266Z,82.97
2017-12-02T16:24:17.288Z,83.34
2017-12-02T16:25:17.309Z,83.34
2017-12-02T16:27:09.797Z,83.21
2017-12-02T16:28:10.860Z,83.59
2017-12-02T16:30:04.366Z,83.25
2017-12-02T16:32:17.571Z,83.63
2017-12-02T16:33:17.786Z,83.34
2017-12-02T16:35:11.410Z,83.34
2017-12-02T16:36:08.710Z,83.34
2017-12-02T16:38:05.521Z,83.34
2017-12-02T16:39:04.280Z,82.97
2017-12-02T16:41:13.676Z,82.97
2017-12-02T16:41:58.454Z,83.25
2017-12-02T16:43:51.144Z,83.06
2017-12-02T16:44:52.021Z,83.06
2017-12-02T16:46:45.381Z,83.72
2017-12-02T16:47:45.630Z,83.34
2017-12-02T16:49:37.244Z,83.15
2017-12-02T16:50:39.148Z,83.34
2017-12-02T16:52:32.679Z,83.44
2017-12-02T16:53:32.714Z,83.25
2017-12-02T16:55:25.601Z,83.44
2017-12-02T16:56:25.683Z,83.44
2017-12-02T16:58:19.808Z,83.25
2017-12-02T17:00:33.178Z,82.97
2017-12-02T17:01:33.239Z,83.44
2017-12-02T17:03:26.799Z,82.78
2017-12-02T17:05:39.286Z,82.97
2017-12-02T17:06:40.268Z,83.25
2017-12-02T17:08:32.974Z,82.97
2017-12-02T17:10:46.468Z,83.53
2017-12-02T17:11:47.216Z,83.15
2017-12-02T17:13:37.807Z,83.15
2017-12-02T17:14:40.686Z,82.78
2017-12-02T17:16:33.862Z,82.78
2017-12-02T17:17:34.247Z,83.34
2017-12-02T17:19:27.820Z,82.68
2017-12-02T17:20:27.854Z,83.44
2017-12-02T17:22:21.936Z,83.25
2017-12-02T17:23:19.775Z,83.44
2017-12-02T17:25:14.888Z,83.25
2017-12-02T17:26:14.985Z,82.97
2017-12-02T17:28:07.838Z,82.78
2017-12-02T17:29:08.587Z,83.06
2017-12-02T17:31:04.412Z,83.25
2017-12-02T17:32:02.000Z,82.68
2017-12-02T17:33:54.527Z,83.34
2017-12-02T17:34:55.620Z,83.06
2017-12-02T17:36:47.417Z,83.72
2017-12-02T17:37:48.471Z,82.68
2017-12-02T17:39:42.553Z,83.34
2017-12-02T17:41:54.999Z,83.06
2017-12-02T17:42:55.632Z,83.15
2017-12-02T17:44:48.634Z,83.53
2017-12-02T17:45:49.702Z,83.34
2017-12-02T17:47:42.747Z,83.15
2017-12-02T17:48:43.417Z,83.44
2017-12-02T17:50:35.842Z,83.82
2017-12-02T17:51:36.743Z,82.87
2017-12-02T17:53:29.232Z,83.15
2017-12-02T17:54:30.347Z,83.44
2017-12-02T17:56:23.202Z,82.97
2017-12-02T17:57:24.130Z,83.25
2017-12-02T17:59:17.304Z,83.34
2017-12-02T18:00:17.391Z,83.15
2017-12-02T18:02:14.899Z,83.44
2017-12-02T18:03:10.947Z,83.25
2017-12-02T18:05:03.649Z,82.97
2017-12-02T18:06:04.498Z,83.06
2017-12-02T18:07:58.014Z,83.25
2017-12-02T18:08:56.631Z,83.82
2017-12-02T18:10:51.773Z,82.97
2017-12-02T18:11:50.503Z,83.06
2017-12-02T18:13:43.273Z,83.82
2017-12-02T18:14:45.250Z,82.97
2017-12-02T18:16:37.860Z,83.72
2017-12-02T18:17:38.804Z,83.72
2017-12-02T18:19:32.244Z,84.01
2017-12-02T18:21:44.714Z,82.97
2017-12-02T18:22:45.830Z,83.63
2017-12-02T18:24:39.269Z,83.34
2017-12-02T18:25:39.242Z,83.82
2017-12-02T18:27:31.861Z,83.44
2017-12-02T18:28:31.810Z,83.82
2017-12-02T18:30:26.389Z,83.21
2017-12-02T18:31:26.340Z,83.02
2017-12-02T18:33:19.002Z,83.97
2017-12-02T18:34:19.885Z,83.40
2017-12-02T18:36:10.629Z,83.87
2017-12-02T18:37:13.349Z,84.06
2017-12-02T18:39:05.921Z,83.49
2017-12-02T18:40:07.014Z,84.16
2017-12-02T18:41:59.499Z,84.06
2017-12-02T18:43:00.450Z,84.16
2017-12-02T18:44:54.096Z,84.16
2017-12-02T18:45:54.238Z,84.72
2017-12-02T18:47:46.665Z,84.72
2017-12-02T18:48:47.716Z,84.63
2017-12-02T18:50:41.245Z,84.72
2017-12-02T18:51:40.627Z,84.53
2017-12-02T18:53:33.736Z,84.91
2017-12-02T18:54:33.904Z,84.06
2017-12-02T18:56:28.334Z,83.97
2017-12-02T18:57:28.423Z,84.16
2017-12-02T18:59:20.995Z,84.06
2017-12-02T19:00:21.981Z,84.16
2017-12-02T19:02:15.535Z,84.16
2017-12-02T19:03:15.459Z,84.34
2017-12-02T19:05:08.169Z,84.16
2017-12-02T19:06:06.328Z,84.06
2017-12-02T19:08:01.702Z,84.06
2017-12-02T19:09:02.024Z,84.16
2017-12-02T19:10:56.113Z,84.16
2017-12-02T19:11:56.117Z,83.30
2017-12-02T19:13:48.775Z,83.40
2017-12-02T19:14:49.708Z,83.40
2017-12-02T19:16:43.336Z,83.59
2017-12-02T19:17:43.265Z,83.78
2017-12-02T19:19:35.688Z,83.59
2017-12-02T19:20:37.042Z,83.78
2017-12-02T19:22:30.417Z,83.78
2017-12-02T19:23:30.366Z,83.68
2017-12-02T19:25:23.171Z,83.59
2017-12-02T19:26:23.948Z,83.30
2017-12-02T19:28:16.618Z,83.21
2017-12-02T19:29:17.449Z,83.30
2017-12-02T19:31:11.147Z,83.21
2017-12-02T19:32:11.011Z,83.40
2017-12-02T19:34:03.655Z,83.49
2017-12-02T19:35:04.572Z,83.11
2017-12-02T19:36:58.168Z,83.78
2017-12-02T19:37:58.182Z,83.21
2017-12-02T19:39:51.837Z,83.68
2017-12-02T19:40:51.707Z,83.59
2017-12-02T19:42:45.248Z,83.78
2017-12-02T19:43:45.238Z,83.21
2017-12-02T19:45:38.556Z,83.30
2017-12-02T19:46:38.851Z,83.11
2017-12-02T19:48:32.380Z,83.02
2017-12-02T19:49:32.579Z,83.30
2017-12-02T19:51:25.557Z,83.40
2017-12-02T19:52:25.901Z,83.21
2017-12-02T19:54:18.971Z,83.78
2017-12-02T19:55:20.314Z,83.49
2017-12-02T19:57:11.996Z,83.40
2017-12-02T19:58:12.893Z,83.78
2017-12-02T20:00:05.637Z,83.68
2017-12-02T20:01:06.646Z,83.87
2017-12-02T20:03:00.108Z,83.87
2017-12-02T20:04:00.174Z,83.59
2017-12-02T20:05:51.425Z,83.68
2017-12-02T20:06:53.738Z,83.78
2017-12-02T20:08:46.358Z,83.87
2017-12-02T20:09:47.223Z,83.40
2017-12-02T20:11:39.915Z,83.40
2017-12-02T20:12:40.790Z,83.78
2017-12-02T20:14:34.499Z,83.11
2017-12-02T20:15:34.341Z,83.02
2017-12-02T20:17:27.025Z,83.30
2017-12-02T20:18:27.898Z,83.40
2017-12-02T20:20:21.443Z,83.11
2017-12-02T20:21:21.461Z,83.59
2017-12-02T20:23:12.276Z,83.11
2017-12-02T20:24:13.445Z,83.49
2017-12-02T20:26:08.549Z,83.11
2017-12-02T20:27:08.605Z,83.30
2017-12-02T20:29:01.895Z,83.21
2017-12-02T20:30:01.878Z,83.21
2017-12-02T20:31:55.735Z,83.49
2017-12-02T20:32:55.672Z,83.21
2017-12-02T20:34:49.846Z,83.21
2017-12-02T20:35:47.599Z,83.21
2017-12-02T20:37:41.237Z,83.11
2017-12-02T20:38:42.384Z,83.11
2017-12-02T20:40:36.259Z,83.40
2017-12-02T20:41:37.118Z,83.49
2017-12-02T20:43:30.389Z,83.68
2017-12-02T20:45:41.091Z,83.30
2017-12-02T20:46:43.546Z,83.40
2017-12-02T20:48:35.786Z,83.49
2017-12-02T20:49:36.837Z,83.21
2017-12-02T20:51:27.954Z,83.11
2017-12-02T20:52:30.525Z,83.49
2017-12-02T20:54:24.204Z,82.92
2017-12-02T20:55:24.135Z,83.21
2017-12-02T20:57:16.712Z,83.68
2017-12-02T21:07:12.640Z,83.11
2017-12-02T21:08:12.081Z,83.11
2017-12-02T21:10:06.078Z,83.02
2017-12-02T21:11:05.987Z,83.21
2017-12-02T21:12:58.600Z,82.83
2017-12-02T21:15:12.475Z,82.92
2017-12-02T21:16:12.506Z,82.92
2017-12-02T21:18:06.094Z,83.02
2017-12-02T21:19:06.077Z,83.11
2017-12-02T21:20:58.576Z,82.92
2017-12-02T21:21:59.413Z,83.30
2017-12-02T21:23:52.146Z,83.30
2017-12-02T21:24:53.182Z,82.54
2017-12-02T21:26:45.837Z,83.30
2017-12-02T21:27:46.735Z,83.30
2017-12-02T21:29:42.081Z,82.92
2017-12-02T21:30:40.334Z,83.11
2017-12-02T21:32:33.812Z,82.92
2017-12-02T21:33:34.158Z,83.40
2017-12-02T21:35:28.125Z,83.30
2017-12-02T21:36:27.703Z,83.30
2017-12-02T21:38:21.326Z,83.40
2017-12-02T21:39:21.167Z,83.30
2017-12-02T21:41:14.422Z,83.30
2017-12-02T21:42:14.946Z,83.11
2017-12-02T21:44:07.640Z,83.40
2017-12-02T21:45:08.282Z,83.30
2017-12-02T21:47:01.261Z,83.30
2017-12-02T21:48:01.621Z,83.87
2017-12-02T21:49:55.169Z,83.59
2017-12-02T21:50:55.128Z,83.97
2017-12-02T21:52:49.356Z,83.49
2017-12-02T21:53:47.043Z,84.06
2017-12-02T21:55:42.270Z,83.78
2017-12-02T21:56:42.173Z,83.68
2017-12-02T21:58:35.670Z,83.87
2017-12-02T21:59:35.856Z,83.97
2017-12-02T22:01:29.349Z,83.87
2017-12-02T22:02:29.372Z,83.40
2017-12-02T22:04:20.616Z,83.68
2017-12-02T22:05:22.927Z,83.49
2017-12-02T22:07:15.852Z,83.87
2017-12-02T22:08:16.490Z,84.34
2017-12-02T22:10:09.402Z,84.44
2017-12-02T22:11:10.147Z,83.49
2017-12-02T22:13:02.457Z,83.59
2017-12-02T22:14:03.096Z,83.59
2017-12-02T22:15:54.872Z,84.16
2017-12-02T22:16:55.371Z,83.87
2017-12-02T22:18:48.853Z,83.87
2017-12-02T22:19:48.850Z,83.59
2017-12-02T22:21:42.032Z,83.68
2017-12-02T22:22:42.511Z,83.78
2017-12-02T22:24:35.874Z,83.87
2017-12-02T22:25:35.828Z,83.68
2017-12-02T22:27:29.569Z,83.78
2017-12-02T22:28:29.853Z,83.68
2017-12-02T22:31:24.946Z,84.16
2017-12-02T22:33:18.513Z,84.16
2017-12-02T22:34:16.616Z,84.44
2017-12-02T22:36:11.375Z,83.87
2017-12-02T22:37:12.280Z,83.97
2017-12-02T22:39:04.535Z,84.34
2017-12-02T22:40:05.622Z,84.16
2017-12-02T22:41:58.227Z,84.06
2017-12-02T22:42:59.160Z,84.06
2017-12-02T22:44:52.713Z,84.25
2017-12-02T22:47:05.206Z,84.16
2017-12-02T22:48:06.079Z,84.06
2017-12-02T22:49:58.110Z,84.06
2017-12-02T22:50:59.678Z,84.25
2017-12-02T22:52:52.270Z,84.06
2017-12-02T22:53:53.260Z,84.53
2017-12-02T22:55:47.063Z,83.87
2017-12-02T22:56:45.913Z,84.29
2017-12-02T22:58:39.479Z,84.48
2017-12-02T22:59:39.581Z,83.91
2017-12-02T23:01:31.980Z,84.29
2017-12-02T23:02:32.279Z,84.39
2017-12-02T23:04:27.440Z,83.44
2017-12-02T23:05:27.433Z,84.29
2017-12-02T23:07:21.570Z,83.91
2017-12-02T23:08:20.960Z,84.25
2017-12-02T23:10:13.860Z,84.06
2017-12-02T23:11:14.637Z,84.10
2017-12-02T23:13:08.364Z,84.48
2017-12-02T23:14:08.395Z,83.82
2017-12-02T23:16:01.061Z,84.10
2017-12-02T23:17:01.905Z,84.34
2017-12-02T23:18:55.217Z,84.16
2017-12-02T23:19:55.181Z,84.10
2017-12-02T23:21:46.537Z,84.20
2017-12-02T23:22:48.760Z,84.29
2017-12-02T23:24:42.296Z,84.29
2017-12-02T23:25:42.345Z,84.29
2017-12-02T23:27:33.910Z,84.20
2017-12-02T23:28:34.076Z,84.10
2017-12-02T23:30:27.259Z,84.29
2017-12-02T23:31:29.421Z,84.20
2017-12-02T23:33:21.878Z,84.29
2017-12-02T23:34:22.994Z,84.20
2017-12-02T23:36:16.510Z,84.10
2017-12-02T23:37:16.576Z,84.29
2017-12-02T23:39:07.887Z,84.29
2017-12-02T23:40:10.101Z,84.29
2017-12-02T23:42:03.648Z,84.29
2017-12-02T23:43:03.656Z,84.29
2017-12-02T23:44:56.300Z,83.82
2017-12-02T23:45:57.198Z,84.20
2017-12-02T23:47:49.861Z,83.53
2017-12-02T23:48:50.750Z,83.44
2017-12-02T23:50:44.174Z,83.91
2017-12-02T23:51:44.308Z,83.63
2017-12-02T23:53:36.724Z,83.82
2017-12-02T23:54:37.917Z,83.44
2017-12-02T23:56:29.227Z,83.91
2017-12-02T23:57:30.408Z,83.63
2017-12-02T23:59:23.913Z,83.91
